Historique des mesures à Cassis (13260), France
Quotidien Résumé Mars 1, 2018 Unités:  Métrique    US   Métrique/US
« Précédent (Jour)
Suivant (Jour) »
Quotidien Hebdomadaire Mensuel Annuel Période au choix
  Maximum: Minimum: Moyenne:
Température: TemperatureC °C 5.5 °C 7.7 °C
Point de rosée: DewpointC °C -0.2 °C 2.5 °C
Humidité: Humidity % 66 % 66 %
Vitesse du vent: 0 km/h 4.2 km/h 14.6 km/h
Rafales: 0 km/h - -
Vent:- - ESE
Pression: PressurehPa hPa 990.1 hPa -
Précipitations: 0.0 mm    
Historical Graphs
 
 
Mesures pour : Mars 1, 2018
Heure Temperature Point de rosée Pression Vent Vitesse du vent Rafales Humidité Pluie (par heure) Conditions
TemperatureC °C DewpointC °C PressurehPa hPa Calm     Humidity % HourlyPrecipMM mm SoftwareType W/m2
00:12 5.7 °C -0.2 °C 999.2 hPa ESE 19.2 km/h 22.5 km/h 66 % 0.0 mm open2300-1.11 W/m2
01:12 5.5 °C -0.2 °C 998.9 hPa SE 14.5 km/h 23.8 km/h 67 % 0.0 mm open2300-1.11 W/m2
02:12 5.9 °C 0.2 °C 998.5 hPa SE 24.3 km/h 24.3 km/h 67 % 0.0 mm open2300-1.11 W/m2
03:12 6.1 °C 0.4 °C 997.5 hPa ESE 26.2 km/h 41.2 km/h 67 % 0.0 mm open2300-1.11 W/m2
04:12 6.4 °C 1.1 °C 997.5 hPa East 11.6 km/h 21.6 km/h 69 % 0.0 mm open2300-1.11 W/m2
05:12 6.5 °C 1.2 °C 996.5 hPa ESE 24.3 km/h 24.3 km/h 69 % 0.0 mm open2300-1.11 W/m2
06:12 6.8 °C 1.5 °C 996.5 hPa ESE 19.2 km/h 24.3 km/h 69 % 0.0 mm open2300-1.11 W/m2
07:12 7.0 °C 1.9 °C 996.5 hPa East 9.8 km/h 23 km/h 70 % 0.0 mm open2300-1.11 W/m2
09:12 7.4 °C 2.5 °C 995.8 hPa East 17.9 km/h 17.9 km/h 71 % 0.0 mm open2300-1.11 W/m2
10:12 7.8 °C 2.7 °C 995.5 hPa NE 18.7 km/h 20.3 km/h 70 % 0.0 mm open2300-1.11 W/m2
11:12 8.3 °C 2.9 °C 995.1 hPa ESE 4.2 km/h 9.8 km/h 69 % 0.0 mm open2300-1.11 W/m2
12:11 9.1 °C 3.3 °C 994.1 hPa ESE 16.9 km/h 16.9 km/h 67 % 0.0 mm open2300-1.11 W/m2
13:12 9.6 °C 3.8 °C 993.8 hPa NE 16.3 km/h 16.3 km/h 67 % 0.0 mm open2300-1.11 W/m2
14:12 9.9 °C 3.8 °C 992.8 hPa ESE 20.3 km/h 20.3 km/h 66 % 0.0 mm open2300-1.11 W/m2
16:12 9.9 °C 4.1 °C 993.1 hPa East 9.3 km/h 10.9 km/h 67 % 0.0 mm open2300-1.11 W/m2
17:12 9.6 °C 3.9 °C 992.4 hPa NNE 4.7 km/h 17.4 km/h 68 % 0.0 mm open2300-1.11 W/m2
18:12 9.4 °C 3.8 °C 992.8 hPa SSE 23 km/h 23 km/h 68 % 0.0 mm open2300-1.11 W/m2
19:12 9.4 °C 4.0 °C 992.4 hPa ESE 16.3 km/h 16.3 km/h 69 % 0.0 mm open2300-1.11 W/m2
21:12 9.4 °C 4.4 °C 991.8 hPa ESE 10.9 km/h 17.9 km/h 71 % 0.0 mm open2300-1.11 W/m2
22:12 9.6 °C 4.6 °C 990.7 hPa ESE 9.3 km/h 9.3 km/h 71 % 0.0 mm open2300-1.11 W/m2
23:12 9.9 °C 5.1 °C 990.1 hPa SE 4.2 km/h 26.7 km/h 72 % 0.0 mm open2300-1.11 W/m2
Observations météo à CASSIS
WU-History script by Weather Underground - 1 mb